createdAt,value
2023-04-08T00:02:17.802Z,10.18
2023-04-08T00:07:19.267Z,10.06
2023-04-08T00:12:21.109Z,9.95
2023-04-08T00:17:22.459Z,9.80
2023-04-08T00:22:24.025Z,9.68
2023-04-08T00:27:25.740Z,9.58
2023-04-08T00:32:28.199Z,9.46
2023-04-08T00:37:29.901Z,9.32
2023-04-08T00:42:31.283Z,9.24
2023-04-08T00:47:32.701Z,9.10
2023-04-08T00:52:34.124Z,9.00
2023-04-08T00:57:36.366Z,8.88
2023-04-08T01:02:46.747Z,8.81
2023-04-08T01:07:49.696Z,8.67
2023-04-08T01:13:12.107Z,8.51
2023-04-08T01:18:15.681Z,8.42
2023-04-08T01:23:59.074Z,8.34
2023-04-08T01:29:03.109Z,8.20
2023-04-08T01:34:06.445Z,8.08
2023-04-08T01:39:08.353Z,8.03
2023-04-08T01:44:11.560Z,7.85
2023-04-08T01:49:14.483Z,7.80
2023-04-08T01:54:16.132Z,7.71
2023-04-08T01:59:21.663Z,7.55
2023-04-08T02:04:23.129Z,7.49
2023-04-08T02:09:25.252Z,7.42
2023-04-08T02:14:26.968Z,7.38
2023-04-08T02:19:44.364Z,7.27
2023-04-08T02:24:46.845Z,7.22
2023-04-08T02:29:50.634Z,7.13
2023-04-08T02:34:52.571Z,7.07
2023-04-08T02:39:54.018Z,6.94
2023-04-08T02:44:56.932Z,6.90
2023-04-08T02:49:58.258Z,6.90
2023-04-08T02:54:59.588Z,6.90
2023-04-08T03:00:01.073Z,6.85
2023-04-08T03:05:03.197Z,6.80
2023-04-08T03:10:05.436Z,6.73
2023-04-08T03:15:07.664Z,6.73
2023-04-08T03:20:09.883Z,6.72
2023-04-08T03:25:11.841Z,6.72
2023-04-08T03:30:13.284Z,6.75
2023-04-08T03:35:15.070Z,6.70
2023-04-08T03:40:16.629Z,6.71
2023-04-08T03:45:18.007Z,6.67
2023-04-08T03:50:19.384Z,6.58
2023-04-08T03:55:20.785Z,6.51
2023-04-08T04:00:22.264Z,6.43
2023-04-08T04:05:23.646Z,6.42
2023-04-08T04:10:25.269Z,6.34
2023-04-08T04:15:26.670Z,6.25
2023-04-08T04:20:30.163Z,6.19
2023-04-08T04:25:31.695Z,6.13
2023-04-08T04:30:33.019Z,6.11
2023-04-08T04:35:34.711Z,6.07
2023-04-08T04:40:36.818Z,6.00
2023-04-08T04:45:38.325Z,5.98
2023-04-08T04:50:39.795Z,5.98
2023-04-08T04:55:41.198Z,6.01
2023-04-08T05:00:42.532Z,6.01
2023-04-08T05:05:44.044Z,6.03
2023-04-08T05:10:45.787Z,6.04
2023-04-08T05:15:47.197Z,6.06
2023-04-08T05:20:48.669Z,6.10
2023-04-08T05:25:50.345Z,6.12
2023-04-08T05:30:52.720Z,6.10
2023-04-08T05:35:54.147Z,6.14
2023-04-08T05:40:55.597Z,6.22
2023-04-08T05:45:56.934Z,6.27
2023-04-08T05:50:58.267Z,6.38
2023-04-08T05:55:59.606Z,6.52
2023-04-08T06:01:00.978Z,6.67
2023-04-08T06:06:02.342Z,6.82
2023-04-08T06:11:06.713Z,7.00
2023-04-08T06:16:11.190Z,7.18
2023-04-08T06:21:12.697Z,7.35
2023-04-08T06:26:14.015Z,7.49
2023-04-08T06:36:33.116Z,7.90
2023-04-08T06:41:42.584Z,8.20
2023-04-08T06:46:44.533Z,8.45
2023-04-08T06:51:47.874Z,8.73
2023-04-08T06:56:49.560Z,8.91
2023-04-08T07:01:51.369Z,9.17
2023-04-08T07:06:52.994Z,9.37
2023-04-08T07:11:54.374Z,9.53
2023-04-08T07:16:56.213Z,9.68
2023-04-08T07:21:57.900Z,9.87
2023-04-08T07:26:59.255Z,10.06
2023-04-08T07:32:00.705Z,10.24
2023-04-08T07:37:02.766Z,10.31
2023-04-08T07:42:04.082Z,10.59
2023-04-08T07:47:05.441Z,10.71
2023-04-08T07:52:06.893Z,10.87
2023-04-08T07:57:08.229Z,10.85
2023-04-08T08:02:09.758Z,11.02
2023-04-08T08:07:11.317Z,11.23
2023-04-08T08:12:12.675Z,11.26
2023-04-08T08:17:14.368Z,11.25
2023-04-08T08:22:15.917Z,11.20
2023-04-08T08:27:17.235Z,11.17
2023-04-08T08:32:18.935Z,11.17
2023-04-08T08:37:20.360Z,11.13
2023-04-08T08:42:25.897Z,11.10
2023-04-08T08:47:27.665Z,11.01
2023-04-08T09:03:31.189Z,10.86
2023-04-08T09:08:34.735Z,10.94
2023-04-08T09:13:39.322Z,11.00
2023-04-08T09:18:44.230Z,11.04
2023-04-08T09:23:51.172Z,11.32
2023-04-08T09:29:25.565Z,11.63
2023-04-08T09:34:32.493Z,11.84
2023-04-08T09:39:34.140Z,12.05
2023-04-08T09:44:38.027Z,12.17
2023-04-08T09:49:51.631Z,12.26
2023-04-08T09:54:59.741Z,12.19
2023-04-08T10:10:37.052Z,12.88
2023-04-08T10:15:40.744Z,13.27
2023-04-08T10:20:43.122Z,13.41
2023-04-08T10:25:45.907Z,13.58
2023-04-08T10:30:48.540Z,13.59
2023-04-08T10:35:53.811Z,13.69
2023-04-08T10:40:55.230Z,13.71
2023-04-08T10:45:56.689Z,13.75
2023-04-08T10:51:05.780Z,14.32
2023-04-08T10:56:17.709Z,14.48
2023-04-08T11:01:19.650Z,14.58
2023-04-08T11:06:21.113Z,14.68
2023-04-08T11:11:23.761Z,14.81
2023-04-08T11:16:27.806Z,14.83
2023-04-08T11:21:30.300Z,14.68
2023-04-08T11:26:31.857Z,14.79
2023-04-08T11:31:34.193Z,14.74
2023-04-08T11:36:36.782Z,14.83
2023-04-08T11:41:39.553Z,14.79
2023-04-08T11:46:42.241Z,14.81
2023-04-08T11:52:00.181Z,14.77
2023-04-08T11:57:03.189Z,14.76
2023-04-08T12:02:04.819Z,15.10
2023-04-08T12:07:06.239Z,15.33
2023-04-08T12:12:07.560Z,15.42
2023-04-08T12:17:08.875Z,15.55
2023-04-08T12:22:10.311Z,15.48
2023-04-08T12:27:11.735Z,15.59
2023-04-08T12:32:13.380Z,15.71
2023-04-08T12:37:14.779Z,15.87
2023-04-08T12:42:16.527Z,15.91
2023-04-08T12:47:17.987Z,15.81
2023-04-08T12:52:19.669Z,15.85
2023-04-08T12:57:21.293Z,16.20
2023-04-08T13:02:22.807Z,16.44
2023-04-08T13:07:24.326Z,16.82
2023-04-08T13:12:25.633Z,16.96
2023-04-08T13:17:27.885Z,16.81
2023-04-08T13:22:29.254Z,16.56
2023-04-08T13:27:30.642Z,16.34
2023-04-08T13:32:32.027Z,15.98
2023-04-08T13:37:33.352Z,15.83
2023-04-08T13:42:34.833Z,15.64
2023-04-08T13:47:37.926Z,15.41
2023-04-08T13:52:39.486Z,15.35
2023-04-08T13:57:41.033Z,15.22
2023-04-08T14:02:42.481Z,15.21
2023-04-08T14:07:43.816Z,15.16
2023-04-08T14:12:46.582Z,15.38
2023-04-08T14:17:48.350Z,15.52
2023-04-08T14:22:49.823Z,15.67
2023-04-08T14:27:58.519Z,15.56
2023-04-08T14:33:01.115Z,15.62
2023-04-08T14:38:02.520Z,15.49
2023-04-08T14:43:04.002Z,15.32
2023-04-08T14:48:05.826Z,15.22
2023-04-08T14:53:07.424Z,15.15
2023-04-08T14:58:08.754Z,15.36
2023-04-08T15:03:13.381Z,15.92
2023-04-08T15:08:15.557Z,16.58
2023-04-08T15:13:17.126Z,16.58
2023-04-08T15:18:18.491Z,16.72
2023-04-08T15:23:19.818Z,16.75
2023-04-08T15:28:21.166Z,16.59
2023-04-08T15:33:22.483Z,16.41
2023-04-08T15:38:23.849Z,16.22
2023-04-08T15:43:25.267Z,15.88
2023-04-08T15:48:26.609Z,15.83
2023-04-08T15:53:28.062Z,15.58
2023-04-08T15:58:29.849Z,15.38
2023-04-08T16:03:31.686Z,15.35
2023-04-08T16:08:34.624Z,15.24
2023-04-08T16:13:38.975Z,15.07
2023-04-08T16:18:41.756Z,14.98
2023-04-08T16:23:43.088Z,14.81
2023-04-08T16:28:44.493Z,14.82
2023-04-08T16:33:45.859Z,14.87
2023-04-08T16:38:47.223Z,14.83
2023-04-08T16:43:48.678Z,14.75
2023-04-08T16:48:50.382Z,14.59
2023-04-08T16:53:52.105Z,14.65
2023-04-08T16:58:53.597Z,14.61
2023-04-08T17:03:55.371Z,14.56
2023-04-08T17:08:57.410Z,14.55
2023-04-08T17:13:58.946Z,14.48
2023-04-08T17:19:00.376Z,14.42
2023-04-08T17:24:01.717Z,14.38
2023-04-08T17:29:03.466Z,14.41
2023-04-08T17:34:04.927Z,14.37
2023-04-08T17:39:06.331Z,14.24
2023-04-08T17:44:07.981Z,14.16
2023-04-08T17:49:12.658Z,14.04
2023-04-08T17:54:14.067Z,13.93
2023-04-08T17:59:15.719Z,13.84
2023-04-08T18:04:17.467Z,13.76
2023-04-08T18:09:18.855Z,13.70
2023-04-08T18:14:20.272Z,13.60
2023-04-08T18:19:21.623Z,13.53
2023-04-08T18:24:23.467Z,13.44
2023-04-08T18:29:24.902Z,13.38
2023-04-08T18:34:26.680Z,13.23
2023-04-08T18:39:28.019Z,13.18
2023-04-08T18:44:29.358Z,13.01
2023-04-08T18:49:33.348Z,12.86
2023-04-08T18:54:35.711Z,12.71
2023-04-08T18:59:37.117Z,12.69
2023-04-08T19:04:38.528Z,12.65
2023-04-08T19:09:40.021Z,12.55
2023-04-08T19:14:42.126Z,12.42
2023-04-08T19:19:43.532Z,12.43
2023-04-08T19:24:44.877Z,12.31
2023-04-08T19:29:46.262Z,12.26
2023-04-08T19:34:48.371Z,12.25
2023-04-08T19:39:49.709Z,12.19
2023-04-08T19:44:51.545Z,12.14
2023-04-08T19:49:52.891Z,12.04
2023-04-08T19:54:54.266Z,12.00
2023-04-08T19:59:55.670Z,11.88
2023-04-08T20:04:57.737Z,11.84
2023-04-08T20:09:59.161Z,11.78
2023-04-08T20:15:01.092Z,11.72
2023-04-08T20:20:03.342Z,11.70
2023-04-08T20:25:05.557Z,11.61
2023-04-08T20:30:07.688Z,11.50
2023-04-08T20:35:09.202Z,11.39
2023-04-08T20:40:10.950Z,11.34
2023-04-08T20:45:12.449Z,11.23
2023-04-08T20:50:13.870Z,11.15
2023-04-08T20:55:15.427Z,11.06
2023-04-08T21:00:17.228Z,10.97
2023-04-08T21:05:18.678Z,10.92
2023-04-08T21:10:20.177Z,10.81
2023-04-08T21:15:22.242Z,10.75
2023-04-08T21:20:23.638Z,10.73
2023-04-08T21:25:26.489Z,10.75
2023-04-08T21:30:27.898Z,10.75
2023-04-08T21:35:29.243Z,10.76
2023-04-08T21:40:30.627Z,10.76
2023-04-08T21:45:31.959Z,10.79
2023-04-08T21:50:33.312Z,10.87
2023-04-08T21:55:34.649Z,10.87
2023-04-08T22:00:35.994Z,10.83
2023-04-08T22:05:37.442Z,10.82
2023-04-08T22:10:38.818Z,10.77
2023-04-08T22:15:40.193Z,10.75
2023-04-08T22:20:41.586Z,10.75
2023-04-08T22:25:43.049Z,10.72
2023-04-08T22:30:44.468Z,10.73
2023-04-08T22:35:46.161Z,10.72
2023-04-08T22:40:47.505Z,10.68
2023-04-08T22:45:48.901Z,10.75
2023-04-08T22:50:50.307Z,10.76
2023-04-08T22:55:51.665Z,10.85
2023-04-08T23:00:52.980Z,10.81
2023-04-08T23:05:54.312Z,10.84
2023-04-08T23:10:55.675Z,10.86
2023-04-08T23:15:57.212Z,10.83
2023-04-08T23:20:58.639Z,10.85
2023-04-08T23:26:00.044Z,10.84
2023-04-08T23:31:03.939Z,10.78
2023-04-08T23:36:09.361Z,10.71
2023-04-08T23:41:10.895Z,10.65
2023-04-08T23:46:12.286Z,10.59
2023-04-08T23:51:13.698Z,10.55
2023-04-08T23:56:15.244Z,10.55
